createdAt,value
2019-02-21T00:02:46.005Z,5.54
2019-02-21T00:07:50.397Z,5.58
2019-02-21T00:12:54.746Z,5.77
2019-02-21T00:17:59.104Z,5.66
2019-02-21T00:23:03.497Z,5.47
2019-02-21T00:28:07.875Z,5.46
2019-02-21T00:33:12.251Z,5.49
2019-02-21T00:38:16.615Z,5.28
2019-02-21T00:43:21.000Z,5.75
2019-02-21T00:48:25.374Z,5.32
2019-02-21T00:53:29.760Z,5.21
2019-02-21T00:58:34.153Z,5.10
2019-02-21T01:03:38.534Z,5.62
2019-02-21T01:08:43.010Z,5.40
2019-02-21T01:13:47.410Z,5.69
2019-02-21T01:18:51.770Z,5.60
2019-02-21T01:23:56.150Z,5.04
2019-02-21T01:29:00.510Z,4.97
2019-02-21T01:34:04.957Z,5.08
2019-02-21T01:39:09.310Z,5.18
2019-02-21T01:44:14.511Z,4.96
2019-02-21T01:49:18.859Z,5.08
2019-02-21T01:54:23.237Z,4.90
2019-02-21T01:59:27.604Z,5.06
2019-02-21T02:04:32.001Z,4.98
2019-02-21T02:09:36.407Z,5.09
2019-02-21T02:14:42.559Z,5.05
2019-02-21T02:19:47.036Z,4.77
2019-02-21T02:24:51.412Z,5.20
2019-02-21T02:29:56.754Z,4.95
2019-02-21T02:35:01.135Z,4.61
2019-02-21T02:40:06.846Z,4.74
2019-02-21T02:45:13.617Z,4.76
2019-02-21T02:50:17.992Z,4.56
2019-02-21T02:55:22.397Z,4.81
2019-02-21T03:00:26.766Z,4.65
2019-02-21T03:10:38.996Z,4.83
2019-02-21T03:15:43.348Z,5.17
2019-02-21T03:20:47.725Z,4.82
2019-02-21T03:25:52.109Z,5.05
2019-02-21T03:30:56.494Z,4.28
2019-02-21T03:36:00.918Z,4.79
2019-02-21T03:41:05.286Z,4.52
2019-02-21T03:46:09.701Z,4.83
2019-02-21T03:51:14.078Z,4.57
2019-02-21T03:56:18.452Z,4.52
2019-02-21T04:01:23.789Z,4.65
2019-02-21T04:06:28.138Z,4.68
2019-02-21T04:11:32.516Z,4.72
2019-02-21T04:16:36.913Z,4.47
2019-02-21T04:21:41.285Z,4.66
2019-02-21T04:26:45.689Z,4.61
2019-02-21T04:31:50.066Z,4.58
2019-02-21T04:36:54.464Z,4.75
2019-02-21T04:41:59.652Z,4.81
2019-02-21T04:47:04.005Z,4.00
2019-02-21T04:52:08.370Z,4.72
2019-02-21T04:57:12.744Z,4.68
2019-02-21T05:02:28.175Z,4.48
2019-02-21T05:07:23.192Z,4.48
2019-02-21T05:12:27.594Z,4.64
2019-02-21T05:17:31.964Z,4.71
2019-02-21T05:22:36.429Z,4.89
2019-02-21T05:27:42.282Z,4.72
2019-02-21T05:32:48.320Z,4.72
2019-02-21T05:38:10.323Z,4.48
2019-02-21T05:43:17.460Z,4.57
2019-02-21T05:48:35.708Z,4.75
2019-02-21T05:53:41.737Z,4.70
2019-02-21T05:58:47.786Z,4.76
2019-02-21T06:04:10.143Z,4.69
2019-02-21T06:09:22.232Z,4.81
2019-02-21T06:14:37.478Z,4.96
2019-02-21T06:19:43.541Z,4.89
2019-02-21T06:24:52.491Z,5.14
2019-02-21T06:29:58.503Z,5.22
2019-02-21T06:35:03.248Z,5.13
2019-02-21T06:40:08.143Z,4.99
2019-02-21T06:45:13.599Z,5.41
2019-02-21T06:50:26.369Z,5.26
2019-02-21T06:55:24.270Z,5.46
2019-02-21T07:00:28.641Z,5.40
2019-02-21T07:05:33.037Z,5.48
2019-02-21T07:10:37.387Z,5.29
2019-02-21T07:15:41.817Z,5.54
2019-02-21T07:20:46.164Z,5.43
2019-02-21T07:25:51.931Z,5.30
2019-02-21T07:30:56.347Z,5.35
2019-02-21T07:36:00.702Z,5.66
2019-02-21T07:41:05.155Z,5.94
2019-02-21T07:46:09.500Z,6.08
2019-02-21T07:51:14.015Z,6.24
2019-02-21T07:56:18.418Z,6.38
2019-02-21T08:01:22.791Z,6.16
2019-02-21T08:06:27.145Z,6.17
2019-02-21T08:11:31.562Z,6.39
2019-02-21T08:16:35.915Z,6.37
2019-02-21T08:21:43.394Z,6.66
2019-02-21T08:26:47.492Z,7.18
2019-02-21T08:31:51.881Z,7.30
2019-02-21T08:36:56.422Z,7.42
2019-02-21T08:42:00.831Z,7.58
2019-02-21T08:47:05.172Z,7.61
2019-02-21T08:52:09.596Z,7.91
2019-02-21T08:57:13.978Z,7.94
2019-02-21T09:02:21.223Z,8.51
2019-02-21T09:07:25.594Z,8.89
2019-02-21T09:12:29.950Z,9.03
2019-02-21T09:17:34.396Z,9.22
2019-02-21T09:22:38.779Z,9.47
2019-02-21T09:27:43.171Z,9.59
2019-02-21T09:32:47.570Z,9.59
2019-02-21T09:37:53.422Z,9.59
2019-02-21T09:42:57.793Z,9.59
2019-02-21T09:48:02.182Z,9.65
2019-02-21T09:53:06.900Z,9.58
2019-02-21T09:58:11.320Z,9.59
2019-02-21T10:03:15.856Z,9.65
2019-02-21T10:08:21.995Z,9.76
2019-02-21T10:13:26.550Z,9.79
2019-02-21T10:18:30.989Z,9.91
2019-02-21T10:23:35.472Z,9.92
2019-02-21T10:28:39.825Z,10.00
2019-02-21T10:33:47.101Z,9.88
2019-02-21T10:38:50.321Z,9.88
2019-02-21T10:43:54.723Z,9.88
2019-02-21T10:48:59.124Z,9.82
2019-02-21T10:54:03.518Z,9.64
2019-02-21T10:59:07.872Z,9.57
2019-02-21T11:04:12.241Z,9.51
2019-02-21T11:09:21.203Z,9.30
2019-02-21T11:14:25.593Z,9.16
2019-02-21T11:19:30.034Z,9.24
2019-02-21T11:24:34.435Z,9.18
2019-02-21T11:29:38.821Z,9.29
2019-02-21T11:34:43.183Z,9.56
2019-02-21T11:39:47.516Z,9.41
2019-02-21T11:44:51.909Z,9.32
2019-02-21T11:49:56.283Z,9.26
2019-02-21T11:55:00.647Z,9.41
2019-02-21T12:00:08.221Z,9.56
2019-02-21T12:05:17.568Z,9.78
2019-02-21T12:10:18.657Z,9.78
2019-02-21T12:15:23.097Z,9.82
2019-02-21T12:20:27.690Z,9.72
2019-02-21T12:25:32.123Z,9.83
2019-02-21T12:30:36.483Z,9.91
2019-02-21T12:35:40.842Z,9.87
2019-02-21T12:40:45.201Z,10.10
2019-02-21T12:45:52.571Z,10.35
2019-02-21T12:50:55.757Z,10.35
2019-02-21T12:56:00.114Z,10.54
2019-02-21T13:01:04.755Z,10.56
2019-02-21T13:06:09.134Z,10.54
2019-02-21T13:11:13.474Z,10.53
2019-02-21T13:16:17.918Z,10.60
2019-02-21T13:21:22.359Z,10.71
2019-02-21T13:26:26.739Z,10.68
2019-02-21T13:31:31.077Z,10.86
2019-02-21T13:36:35.485Z,10.84
2019-02-21T13:41:39.936Z,10.78
2019-02-21T13:46:44.326Z,10.85
2019-02-21T13:51:48.703Z,10.88
2019-02-21T13:56:53.086Z,10.92
2019-02-21T14:01:57.479Z,10.79
2019-02-21T14:07:01.833Z,10.80
2019-02-21T14:12:06.243Z,10.83
2019-02-21T14:17:10.627Z,10.87
2019-02-21T14:22:15.054Z,10.74
2019-02-21T14:27:19.486Z,10.75
2019-02-21T14:32:23.887Z,10.75
2019-02-21T14:37:28.263Z,10.72
2019-02-21T14:42:32.664Z,10.74
2019-02-21T14:47:37.065Z,10.59
2019-02-21T14:52:41.457Z,10.60
2019-02-21T14:57:45.991Z,10.54
2019-02-21T15:02:50.435Z,10.51
2019-02-21T15:07:54.798Z,10.45
2019-02-21T15:12:59.180Z,10.45
2019-02-21T15:18:07.412Z,10.43
2019-02-21T15:23:09.619Z,10.45
2019-02-21T15:28:13.973Z,10.43
2019-02-21T15:33:18.371Z,10.43
2019-02-21T15:38:22.748Z,10.38
2019-02-21T15:43:27.101Z,10.34
2019-02-21T15:48:31.494Z,10.31
2019-02-21T15:53:35.851Z,10.25
2019-02-21T15:58:40.232Z,10.20
2019-02-21T16:03:44.595Z,10.19
2019-02-21T16:08:49.002Z,10.12
2019-02-21T16:14:02.658Z,10.06
2019-02-21T16:18:59.473Z,10.12
2019-02-21T16:24:03.894Z,10.09
2019-02-21T16:29:08.269Z,10.04
2019-02-21T16:34:12.652Z,10.14
2019-02-21T16:39:17.041Z,10.08
2019-02-21T16:44:21.391Z,10.06
2019-02-21T16:49:25.777Z,9.91
2019-02-21T16:54:30.132Z,9.95
2019-02-21T16:59:34.559Z,10.08
2019-02-21T17:04:38.939Z,10.08
2019-02-21T17:09:43.347Z,10.06
2019-02-21T17:14:47.723Z,9.99
2019-02-21T17:19:52.163Z,9.98
2019-02-21T17:24:56.580Z,10.00
2019-02-21T17:30:00.935Z,9.77
2019-02-21T17:35:08.348Z,9.67
2019-02-21T17:40:21.800Z,9.59
2019-02-21T17:45:26.243Z,9.62
2019-02-21T17:50:30.616Z,9.45
2019-02-21T17:55:35.254Z,9.64
2019-02-21T18:00:40.498Z,9.69
2019-02-21T18:05:44.883Z,9.73
2019-02-21T18:10:49.307Z,9.79
2019-02-21T18:15:53.735Z,9.70
2019-02-21T18:20:58.101Z,9.73
2019-02-21T18:26:08.667Z,9.66
2019-02-21T18:31:13.023Z,9.68
2019-02-21T18:36:17.922Z,9.70
2019-02-21T18:41:22.344Z,9.69
2019-02-21T18:46:26.712Z,9.69
2019-02-21T18:51:31.161Z,9.39
2019-02-21T18:56:35.640Z,9.40
2019-02-21T19:01:40.030Z,9.47
2019-02-21T19:06:44.422Z,9.36
2019-02-21T19:11:48.838Z,9.40
2019-02-21T19:16:53.236Z,9.28
2019-02-21T19:21:57.695Z,9.28
2019-02-21T19:27:02.070Z,9.32
2019-02-21T19:32:06.662Z,9.29
2019-02-21T19:37:11.040Z,9.27
2019-02-21T19:42:15.670Z,9.25
2019-02-21T19:47:20.115Z,9.28
2019-02-21T19:52:24.578Z,9.38
2019-02-21T19:57:29.035Z,9.03
2019-02-21T20:02:33.389Z,9.17
2019-02-21T20:07:37.741Z,9.22
2019-02-21T20:12:42.097Z,9.30
2019-02-21T20:17:46.457Z,9.36
2019-02-21T20:22:50.840Z,9.20
2019-02-21T20:27:56.263Z,9.26
2019-02-21T20:33:00.760Z,9.20
2019-02-21T20:38:05.318Z,9.15
2019-02-21T20:43:09.768Z,9.21
2019-02-21T20:48:14.212Z,8.94
2019-02-21T20:53:18.711Z,8.90
2019-02-21T20:58:23.266Z,8.73
2019-02-21T21:03:27.757Z,8.61
2019-02-21T21:08:42.505Z,8.90
2019-02-21T21:13:38.290Z,8.99
2019-02-21T21:18:42.742Z,9.14
2019-02-21T21:23:48.172Z,8.99
2019-02-21T21:28:52.485Z,9.07
2019-02-21T21:33:56.932Z,9.03
2019-02-21T21:39:01.398Z,8.94
2019-02-21T21:44:07.408Z,9.05
2019-02-21T21:49:11.784Z,9.00
2019-02-21T21:54:16.387Z,8.85
2019-02-21T21:59:20.745Z,8.92
2019-02-21T22:04:25.135Z,8.92
2019-02-21T22:09:29.535Z,9.03
2019-02-21T22:14:33.954Z,8.68
2019-02-21T22:19:38.317Z,8.88
2019-02-21T22:24:42.753Z,8.76
2019-02-21T22:29:47.153Z,8.80
2019-02-21T22:34:51.544Z,8.62
2019-02-21T22:39:55.940Z,8.57
2019-02-21T22:45:00.390Z,8.54
2019-02-21T22:50:07.373Z,8.63
2019-02-21T22:55:11.838Z,8.68
2019-02-21T23:00:22.236Z,8.80
2019-02-21T23:05:45.899Z,8.78
2019-02-21T23:10:51.145Z,8.66
2019-02-21T23:15:55.582Z,8.64
2019-02-21T23:20:59.954Z,8.71
2019-02-21T23:26:04.347Z,8.61
2019-02-21T23:31:08.731Z,8.69
2019-02-21T23:36:13.108Z,8.75
2019-02-21T23:41:17.526Z,8.73
2019-02-21T23:46:22.001Z,8.62
2019-02-21T23:51:26.405Z,8.59
2019-02-21T23:56:30.812Z,8.70
